sensor_id;sensor_type;location;lat;lon;timestamp;P1;durP1;ratioP1;P2;durP2;ratioP2
16246;SDS011;8231;50.866;7.944;2022-12-18T00:00:05;15.63;;;11.47;;
16246;SDS011;8231;50.866;7.944;2022-12-18T00:02:39;15.53;;;11.73;;
16246;SDS011;8231;50.866;7.944;2022-12-18T00:05:07;19.57;;;13.00;;
16246;SDS011;8231;50.866;7.944;2022-12-18T00:07:35;17.10;;;12.27;;
16246;SDS011;8231;50.866;7.944;2022-12-18T00:10:06;16.67;;;10.87;;
16246;SDS011;8231;50.866;7.944;2022-12-18T00:12:35;17.37;;;11.27;;
16246;SDS011;8231;50.866;7.944;2022-12-18T00:15:03;15.20;;;10.60;;
16246;SDS011;8231;50.866;7.944;2022-12-18T00:17:31;15.43;;;11.00;;
16246;SDS011;8231;50.866;7.944;2022-12-18T00:19:59;13.53;;;10.20;;
16246;SDS011;8231;50.866;7.944;2022-12-18T00:22:28;17.17;;;12.23;;
16246;SDS011;8231;50.866;7.944;2022-12-18T00:24:56;17.13;;;11.60;;
16246;SDS011;8231;50.866;7.944;2022-12-18T00:27:25;12.77;;;10.77;;
16246;SDS011;8231;50.866;7.944;2022-12-18T00:29:53;14.07;;;11.57;;
16246;SDS011;8231;50.866;7.944;2022-12-18T00:32:21;15.97;;;10.10;;
16246;SDS011;8231;50.866;7.944;2022-12-18T00:34:49;15.33;;;10.77;;
16246;SDS011;8231;50.866;7.944;2022-12-18T00:37:17;16.13;;;12.57;;
16246;SDS011;8231;50.866;7.944;2022-12-18T00:39:49;17.57;;;12.67;;
16246;SDS011;8231;50.866;7.944;2022-12-18T00:42:19;14.93;;;11.13;;
16246;SDS011;8231;50.866;7.944;2022-12-18T00:45:06;16.87;;;10.93;;
16246;SDS011;8231;50.866;7.944;2022-12-18T00:47:38;14.63;;;10.53;;
16246;SDS011;8231;50.866;7.944;2022-12-18T00:50:07;14.50;;;10.97;;
16246;SDS011;8231;50.866;7.944;2022-12-18T00:52:39;19.03;;;12.27;;
16246;SDS011;8231;50.866;7.944;2022-12-18T00:55:07;15.63;;;10.63;;
16246;SDS011;8231;50.866;7.944;2022-12-18T00:57:35;14.87;;;10.43;;
16246;SDS011;8231;50.866;7.944;2022-12-18T01:00:08;17.00;;;11.40;;
16246;SDS011;8231;50.866;7.944;2022-12-18T01:02:38;17.87;;;10.87;;
16246;SDS011;8231;50.866;7.944;2022-12-18T01:05:07;18.27;;;11.83;;
16246;SDS011;8231;50.866;7.944;2022-12-18T01:07:36;16.93;;;11.57;;
16246;SDS011;8231;50.866;7.944;2022-12-18T01:10:04;19.10;;;12.17;;
16246;SDS011;8231;50.866;7.944;2022-12-18T01:12:34;17.07;;;11.67;;
16246;SDS011;8231;50.866;7.944;2022-12-18T01:15:02;19.30;;;12.20;;
16246;SDS011;8231;50.866;7.944;2022-12-18T01:17:33;16.73;;;11.27;;
16246;SDS011;8231;50.866;7.944;2022-12-18T01:20:03;18.40;;;12.23;;
16246;SDS011;8231;50.866;7.944;2022-12-18T01:22:33;14.60;;;10.97;;
16246;SDS011;8231;50.866;7.944;2022-12-18T01:25:01;16.97;;;12.67;;
16246;SDS011;8231;50.866;7.944;2022-12-18T01:27:30;23.20;;;12.57;;
16246;SDS011;8231;50.866;7.944;2022-12-18T01:30:02;17.53;;;12.13;;
16246;SDS011;8231;50.866;7.944;2022-12-18T01:32:31;17.63;;;12.57;;
16246;SDS011;8231;50.866;7.944;2022-12-18T01:35:01;17.80;;;12.17;;
16246;SDS011;8231;50.866;7.944;2022-12-18T01:37:30;18.30;;;12.10;;
16246;SDS011;8231;50.866;7.944;2022-12-18T01:39:58;18.23;;;12.70;;
16246;SDS011;8231;50.866;7.944;2022-12-18T01:42:26;19.40;;;13.77;;
16246;SDS011;8231;50.866;7.944;2022-12-18T01:44:58;18.00;;;13.53;;
16246;SDS011;8231;50.866;7.944;2022-12-18T01:47:32;21.30;;;13.47;;
16246;SDS011;8231;50.866;7.944;2022-12-18T01:50:07;19.73;;;11.37;;
16246;SDS011;8231;50.866;7.944;2022-12-18T01:52:37;18.47;;;14.03;;
16246;SDS011;8231;50.866;7.944;2022-12-18T01:55:08;19.23;;;12.63;;
16246;SDS011;8231;50.866;7.944;2022-12-18T01:57:38;19.57;;;13.73;;
16246;SDS011;8231;50.866;7.944;2022-12-18T02:00:08;19.90;;;14.33;;
16246;SDS011;8231;50.866;7.944;2022-12-18T02:02:41;23.77;;;13.80;;
16246;SDS011;8231;50.866;7.944;2022-12-18T02:05:11;17.33;;;12.90;;
16246;SDS011;8231;50.866;7.944;2022-12-18T02:07:44;20.90;;;13.70;;
16246;SDS011;8231;50.866;7.944;2022-12-18T02:10:23;23.80;;;14.73;;
16246;SDS011;8231;50.866;7.944;2022-12-18T02:12:56;22.37;;;16.00;;
16246;SDS011;8231;50.866;7.944;2022-12-18T02:15:36;24.60;;;16.57;;
16246;SDS011;8231;50.866;7.944;2022-12-18T02:18:10;23.30;;;15.50;;
16246;SDS011;8231;50.866;7.944;2022-12-18T02:20:43;20.50;;;14.13;;
16246;SDS011;8231;50.866;7.944;2022-12-18T02:23:18;27.60;;;17.40;;
16246;SDS011;8231;50.866;7.944;2022-12-18T02:26:07;23.57;;;15.97;;
16246;SDS011;8231;50.866;7.944;2022-12-18T02:28:44;25.57;;;16.03;;
16246;SDS011;8231;50.866;7.944;2022-12-18T02:31:16;21.57;;;14.73;;
16246;SDS011;8231;50.866;7.944;2022-12-18T02:33:51;19.67;;;14.37;;
16246;SDS011;8231;50.866;7.944;2022-12-18T02:36:22;19.73;;;14.17;;
16246;SDS011;8231;50.866;7.944;2022-12-18T02:38:53;19.83;;;14.70;;
16246;SDS011;8231;50.866;7.944;2022-12-18T02:41:25;20.43;;;14.60;;
16246;SDS011;8231;50.866;7.944;2022-12-18T02:43:55;19.90;;;14.00;;
16246;SDS011;8231;50.866;7.944;2022-12-18T02:46:26;20.40;;;15.20;;
16246;SDS011;8231;50.866;7.944;2022-12-18T02:49:10;26.07;;;18.03;;
16246;SDS011;8231;50.866;7.944;2022-12-18T02:51:48;34.03;;;21.03;;
16246;SDS011;8231;50.866;7.944;2022-12-18T02:54:26;29.27;;;19.23;;
16246;SDS011;8231;50.866;7.944;2022-12-18T02:57:11;30.83;;;20.00;;
16246;SDS011;8231;50.866;7.944;2022-12-18T02:59:46;27.80;;;19.60;;
16246;SDS011;8231;50.866;7.944;2022-12-18T03:02:23;28.77;;;19.27;;
16246;SDS011;8231;50.866;7.944;2022-12-18T03:04:58;30.83;;;20.33;;
16246;SDS011;8231;50.866;7.944;2022-12-18T03:07:34;25.47;;;18.70;;
16246;SDS011;8231;50.866;7.944;2022-12-18T03:10:10;28.40;;;19.53;;
16246;SDS011;8231;50.866;7.944;2022-12-18T03:12:44;27.10;;;18.40;;
16246;SDS011;8231;50.866;7.944;2022-12-18T03:15:20;34.23;;;20.13;;
16246;SDS011;8231;50.866;7.944;2022-12-18T03:17:59;27.60;;;16.80;;
16246;SDS011;8231;50.866;7.944;2022-12-18T03:20:31;26.40;;;17.10;;
16246;SDS011;8231;50.866;7.944;2022-12-18T03:23:02;23.23;;;16.77;;
16246;SDS011;8231;50.866;7.944;2022-12-18T03:25:36;24.10;;;16.47;;
16246;SDS011;8231;50.866;7.944;2022-12-18T03:28:09;23.90;;;15.73;;
16246;SDS011;8231;50.866;7.944;2022-12-18T03:30:41;23.37;;;16.03;;
16246;SDS011;8231;50.866;7.944;2022-12-18T03:33:12;22.13;;;16.57;;
16246;SDS011;8231;50.866;7.944;2022-12-18T03:35:48;25.57;;;14.90;;
16246;SDS011;8231;50.866;7.944;2022-12-18T03:38:17;22.53;;;15.90;;
16246;SDS011;8231;50.866;7.944;2022-12-18T03:40:51;20.53;;;15.30;;
16246;SDS011;8231;50.866;7.944;2022-12-18T03:43:34;25.70;;;15.43;;
16246;SDS011;8231;50.866;7.944;2022-12-18T03:46:11;23.73;;;15.73;;
16246;SDS011;8231;50.866;7.944;2022-12-18T03:48:51;20.87;;;14.97;;
16246;SDS011;8231;50.866;7.944;2022-12-18T03:51:25;28.07;;;16.73;;
16246;SDS011;8231;50.866;7.944;2022-12-18T03:53:59;21.13;;;15.17;;
16246;SDS011;8231;50.866;7.944;2022-12-18T03:56:35;23.07;;;14.40;;
16246;SDS011;8231;50.866;7.944;2022-12-18T03:59:08;22.87;;;15.63;;
16246;SDS011;8231;50.866;7.944;2022-12-18T04:01:39;24.70;;;15.47;;
16246;SDS011;8231;50.866;7.944;2022-12-18T04:04:12;20.40;;;15.07;;
16246;SDS011;8231;50.866;7.944;2022-12-18T04:06:43;23.07;;;14.47;;
16246;SDS011;8231;50.866;7.944;2022-12-18T04:09:12;25.13;;;17.23;;
16246;SDS011;8231;50.866;7.944;2022-12-18T04:11:45;27.90;;;16.37;;
16246;SDS011;8231;50.866;7.944;2022-12-18T04:14:16;21.33;;;15.33;;
16246;SDS011;8231;50.866;7.944;2022-12-18T04:16:48;25.67;;;15.60;;
16246;SDS011;8231;50.866;7.944;2022-12-18T04:19:20;26.13;;;17.27;;
16246;SDS011;8231;50.866;7.944;2022-12-18T04:21:50;27.17;;;16.73;;
16246;SDS011;8231;50.866;7.944;2022-12-18T04:24:18;30.50;;;17.97;;
16246;SDS011;8231;50.866;7.944;2022-12-18T04:26:57;33.90;;;20.03;;
16246;SDS011;8231;50.866;7.944;2022-12-18T04:29:32;28.63;;;19.47;;
16246;SDS011;8231;50.866;7.944;2022-12-18T04:32:00;30.13;;;18.80;;
16246;SDS011;8231;50.866;7.944;2022-12-18T04:34:30;27.90;;;18.97;;
16246;SDS011;8231;50.866;7.944;2022-12-18T04:36:58;28.27;;;18.23;;
16246;SDS011;8231;50.866;7.944;2022-12-18T04:39:28;31.30;;;19.23;;
16246;SDS011;8231;50.866;7.944;2022-12-18T04:42:00;28.13;;;17.10;;
16246;SDS011;8231;50.866;7.944;2022-12-18T04:44:29;31.80;;;20.23;;
16246;SDS011;8231;50.866;7.944;2022-12-18T04:46:58;32.10;;;19.40;;
16246;SDS011;8231;50.866;7.944;2022-12-18T04:49:26;32.13;;;20.70;;
16246;SDS011;8231;50.866;7.944;2022-12-18T04:51:54;34.80;;;20.13;;
16246;SDS011;8231;50.866;7.944;2022-12-18T04:54:22;35.27;;;20.73;;
16246;SDS011;8231;50.866;7.944;2022-12-18T04:56:50;33.13;;;19.83;;
16246;SDS011;8231;50.866;7.944;2022-12-18T04:59:19;26.10;;;17.27;;
16246;SDS011;8231;50.866;7.944;2022-12-18T05:01:47;26.20;;;17.73;;
16246;SDS011;8231;50.866;7.944;2022-12-18T05:04:16;37.03;;;21.70;;
16246;SDS011;8231;50.866;7.944;2022-12-18T05:06:45;27.80;;;18.10;;
16246;SDS011;8231;50.866;7.944;2022-12-18T05:09:14;27.30;;;16.93;;
16246;SDS011;8231;50.866;7.944;2022-12-18T05:11:42;24.73;;;17.53;;
16246;SDS011;8231;50.866;7.944;2022-12-18T05:14:12;27.50;;;17.50;;
16246;SDS011;8231;50.866;7.944;2022-12-18T05:16:40;28.50;;;17.93;;
16246;SDS011;8231;50.866;7.944;2022-12-18T05:19:08;33.23;;;18.27;;
16246;SDS011;8231;50.866;7.944;2022-12-18T05:21:38;34.07;;;19.53;;
16246;SDS011;8231;50.866;7.944;2022-12-18T05:24:06;28.57;;;18.23;;
16246;SDS011;8231;50.866;7.944;2022-12-18T05:26:34;32.17;;;21.20;;
16246;SDS011;8231;50.866;7.944;2022-12-18T05:29:02;36.07;;;23.27;;
16246;SDS011;8231;50.866;7.944;2022-12-18T05:31:30;29.90;;;20.90;;
16246;SDS011;8231;50.866;7.944;2022-12-18T05:34:05;35.57;;;21.03;;
16246;SDS011;8231;50.866;7.944;2022-12-18T05:36:33;40.00;;;23.57;;
16246;SDS011;8231;50.866;7.944;2022-12-18T05:39:03;36.70;;;21.83;;
16246;SDS011;8231;50.866;7.944;2022-12-18T05:41:31;33.80;;;21.40;;
16246;SDS011;8231;50.866;7.944;2022-12-18T05:43:59;38.47;;;22.50;;
16246;SDS011;8231;50.866;7.944;2022-12-18T05:46:28;33.23;;;22.37;;
16246;SDS011;8231;50.866;7.944;2022-12-18T05:48:58;36.40;;;22.40;;
16246;SDS011;8231;50.866;7.944;2022-12-18T05:51:26;32.47;;;20.87;;
16246;SDS011;8231;50.866;7.944;2022-12-18T05:53:55;27.77;;;19.03;;
16246;SDS011;8231;50.866;7.944;2022-12-18T05:56:24;34.50;;;20.77;;
16246;SDS011;8231;50.866;7.944;2022-12-18T05:58:52;32.30;;;18.20;;
16246;SDS011;8231;50.866;7.944;2022-12-18T06:01:22;28.60;;;18.40;;
16246;SDS011;8231;50.866;7.944;2022-12-18T06:03:52;33.10;;;18.77;;
16246;SDS011;8231;50.866;7.944;2022-12-18T06:06:21;27.47;;;18.47;;
16246;SDS011;8231;50.866;7.944;2022-12-18T06:08:51;25.03;;;16.73;;
16246;SDS011;8231;50.866;7.944;2022-12-18T06:11:21;26.40;;;17.07;;
16246;SDS011;8231;50.866;7.944;2022-12-18T06:13:52;23.87;;;16.90;;
16246;SDS011;8231;50.866;7.944;2022-12-18T06:16:25;30.93;;;17.17;;
16246;SDS011;8231;50.866;7.944;2022-12-18T06:18:55;23.03;;;16.20;;
16246;SDS011;8231;50.866;7.944;2022-12-18T06:21:25;25.13;;;15.47;;
16246;SDS011;8231;50.866;7.944;2022-12-18T06:23:53;22.53;;;15.77;;
16246;SDS011;8231;50.866;7.944;2022-12-18T06:26:21;21.57;;;15.07;;
16246;SDS011;8231;50.866;7.944;2022-12-18T06:28:55;26.20;;;16.20;;
16246;SDS011;8231;50.866;7.944;2022-12-18T06:31:24;23.23;;;14.60;;
16246;SDS011;8231;50.866;7.944;2022-12-18T06:33:52;23.20;;;14.83;;
16246;SDS011;8231;50.866;7.944;2022-12-18T06:36:21;22.97;;;15.70;;
16246;SDS011;8231;50.866;7.944;2022-12-18T06:38:49;18.40;;;14.53;;
16246;SDS011;8231;50.866;7.944;2022-12-18T06:41:18;21.80;;;14.80;;
16246;SDS011;8231;50.866;7.944;2022-12-18T06:43:47;22.10;;;15.43;;
16246;SDS011;8231;50.866;7.944;2022-12-18T06:46:17;22.87;;;15.17;;
16246;SDS011;8231;50.866;7.944;2022-12-18T06:48:46;22.40;;;14.60;;
16246;SDS011;8231;50.866;7.944;2022-12-18T06:51:19;22.97;;;14.80;;
16246;SDS011;8231;50.866;7.944;2022-12-18T06:53:48;23.67;;;14.67;;
16246;SDS011;8231;50.866;7.944;2022-12-18T06:56:16;22.97;;;14.23;;
16246;SDS011;8231;50.866;7.944;2022-12-18T06:58:44;23.47;;;16.60;;
16246;SDS011;8231;50.866;7.944;2022-12-18T07:01:13;29.17;;;17.07;;
16246;SDS011;8231;50.866;7.944;2022-12-18T07:03:43;23.47;;;15.27;;
16246;SDS011;8231;50.866;7.944;2022-12-18T07:06:15;21.80;;;16.00;;
16246;SDS011;8231;50.866;7.944;2022-12-18T07:08:44;22.23;;;14.27;;
16246;SDS011;8231;50.866;7.944;2022-12-18T07:11:13;19.53;;;13.90;;
16246;SDS011;8231;50.866;7.944;2022-12-18T07:13:42;23.10;;;14.87;;
16246;SDS011;8231;50.866;7.944;2022-12-18T07:16:11;19.50;;;12.83;;
16246;SDS011;8231;50.866;7.944;2022-12-18T07:18:50;21.93;;;14.77;;
16246;SDS011;8231;50.866;7.944;2022-12-18T07:21:19;21.13;;;13.73;;
16246;SDS011;8231;50.866;7.944;2022-12-18T07:23:47;25.23;;;16.53;;
16246;SDS011;8231;50.866;7.944;2022-12-18T07:26:16;16.43;;;13.03;;
16246;SDS011;8231;50.866;7.944;2022-12-18T07:28:45;21.40;;;14.77;;
16246;SDS011;8231;50.866;7.944;2022-12-18T07:31:15;20.60;;;14.20;;
16246;SDS011;8231;50.866;7.944;2022-12-18T07:33:47;21.13;;;13.60;;
16246;SDS011;8231;50.866;7.944;2022-12-18T07:36:17;22.27;;;15.13;;
16246;SDS011;8231;50.866;7.944;2022-12-18T07:38:46;21.50;;;13.90;;
16246;SDS011;8231;50.866;7.944;2022-12-18T07:41:14;18.77;;;13.20;;
16246;SDS011;8231;50.866;7.944;2022-12-18T07:43:43;21.37;;;14.40;;
16246;SDS011;8231;50.866;7.944;2022-12-18T07:46:12;20.53;;;13.03;;
16246;SDS011;8231;50.866;7.944;2022-12-18T07:48:41;20.00;;;12.90;;
16246;SDS011;8231;50.866;7.944;2022-12-18T07:51:15;20.27;;;13.13;;
16246;SDS011;8231;50.866;7.944;2022-12-18T07:53:45;16.80;;;12.07;;
16246;SDS011;8231;50.866;7.944;2022-12-18T07:56:18;17.30;;;12.07;;
16246;SDS011;8231;50.866;7.944;2022-12-18T07:58:56;16.50;;;11.90;;
16246;SDS011;8231;50.866;7.944;2022-12-18T08:01:27;18.73;;;11.27;;
16246;SDS011;8231;50.866;7.944;2022-12-18T08:03:56;16.67;;;11.93;;
16246;SDS011;8231;50.866;7.944;2022-12-18T08:06:26;19.77;;;13.70;;
16246;SDS011;8231;50.866;7.944;2022-12-18T08:08:55;18.30;;;12.73;;
16246;SDS011;8231;50.866;7.944;2022-12-18T08:11:24;17.77;;;12.00;;
16246;SDS011;8231;50.866;7.944;2022-12-18T08:13:53;17.63;;;12.30;;
16246;SDS011;8231;50.866;7.944;2022-12-18T08:16:21;21.13;;;12.70;;
16246;SDS011;8231;50.866;7.944;2022-12-18T08:18:51;16.30;;;11.97;;
16246;SDS011;8231;50.866;7.944;2022-12-18T08:21:20;17.60;;;11.63;;
16246;SDS011;8231;50.866;7.944;2022-12-18T08:23:51;17.90;;;11.27;;
16246;SDS011;8231;50.866;7.944;2022-12-18T08:26:21;17.53;;;11.17;;
16246;SDS011;8231;50.866;7.944;2022-12-18T08:28:50;19.47;;;12.67;;
16246;SDS011;8231;50.866;7.944;2022-12-18T08:31:18;18.33;;;11.93;;
16246;SDS011;8231;50.866;7.944;2022-12-18T08:33:49;17.07;;;12.40;;
16246;SDS011;8231;50.866;7.944;2022-12-18T08:36:19;16.10;;;12.33;;
16246;SDS011;8231;50.866;7.944;2022-12-18T08:38:47;16.50;;;12.27;;
16246;SDS011;8231;50.866;7.944;2022-12-18T08:41:17;16.40;;;12.37;;
16246;SDS011;8231;50.866;7.944;2022-12-18T08:43:46;16.63;;;11.80;;
16246;SDS011;8231;50.866;7.944;2022-12-18T08:46:32;16.97;;;12.57;;
16246;SDS011;8231;50.866;7.944;2022-12-18T08:49:03;18.40;;;13.07;;
16246;SDS011;8231;50.866;7.944;2022-12-18T08:51:32;19.83;;;14.43;;
16246;SDS011;8231;50.866;7.944;2022-12-18T08:54:01;16.87;;;11.87;;
16246;SDS011;8231;50.866;7.944;2022-12-18T08:56:33;16.23;;;11.23;;
16246;SDS011;8231;50.866;7.944;2022-12-18T08:59:01;15.77;;;11.70;;
16246;SDS011;8231;50.866;7.944;2022-12-18T09:01:30;15.67;;;11.43;;
16246;SDS011;8231;50.866;7.944;2022-12-18T09:03:59;18.63;;;11.47;;
16246;SDS011;8231;50.866;7.944;2022-12-18T09:06:27;18.93;;;13.90;;
16246;SDS011;8231;50.866;7.944;2022-12-18T09:08:56;13.70;;;9.90;;
16246;SDS011;8231;50.866;7.944;2022-12-18T09:11:26;15.67;;;11.73;;
16246;SDS011;8231;50.866;7.944;2022-12-18T09:13:57;13.53;;;10.43;;
16246;SDS011;8231;50.866;7.944;2022-12-18T09:16:27;18.10;;;10.90;;
16246;SDS011;8231;50.866;7.944;2022-12-18T09:18:58;16.17;;;11.20;;
16246;SDS011;8231;50.866;7.944;2022-12-18T09:21:27;18.10;;;11.67;;
16246;SDS011;8231;50.866;7.944;2022-12-18T09:24:02;14.97;;;10.17;;
16246;SDS011;8231;50.866;7.944;2022-12-18T09:26:34;16.73;;;12.37;;
16246;SDS011;8231;50.866;7.944;2022-12-18T09:29:04;16.23;;;11.63;;
16246;SDS011;8231;50.866;7.944;2022-12-18T09:31:33;12.97;;;9.97;;
16246;SDS011;8231;50.866;7.944;2022-12-18T09:34:05;13.40;;;10.90;;
16246;SDS011;8231;50.866;7.944;2022-12-18T09:36:33;15.43;;;11.00;;
16246;SDS011;8231;50.866;7.944;2022-12-18T09:39:02;11.63;;;8.30;;
16246;SDS011;8231;50.866;7.944;2022-12-18T09:41:41;9.97;;;7.10;;
16246;SDS011;8231;50.866;7.944;2022-12-18T09:44:21;11.23;;;7.70;;
16246;SDS011;8231;50.866;7.944;2022-12-18T09:46:53;14.53;;;7.43;;
16246;SDS011;8231;50.866;7.944;2022-12-18T09:49:29;9.37;;;6.77;;
16246;SDS011;8231;50.866;7.944;2022-12-18T09:52:02;9.37;;;7.03;;
16246;SDS011;8231;50.866;7.944;2022-12-18T09:54:33;10.63;;;7.03;;
16246;SDS011;8231;50.866;7.944;2022-12-18T09:57:05;12.57;;;6.67;;
16246;SDS011;8231;50.866;7.944;2022-12-18T09:59:38;12.40;;;7.20;;
16246;SDS011;8231;50.866;7.944;2022-12-18T10:02:12;11.53;;;8.30;;
16246;SDS011;8231;50.866;7.944;2022-12-18T10:04:42;9.50;;;6.87;;
16246;SDS011;8231;50.866;7.944;2022-12-18T10:07:13;13.37;;;8.60;;
16246;SDS011;8231;50.866;7.944;2022-12-18T10:09:46;8.37;;;6.57;;
16246;SDS011;8231;50.866;7.944;2022-12-18T10:12:25;10.13;;;6.80;;
16246;SDS011;8231;50.866;7.944;2022-12-18T10:15:06;10.50;;;7.77;;
16246;SDS011;8231;50.866;7.944;2022-12-18T10:17:41;13.73;;;7.33;;
16246;SDS011;8231;50.866;7.944;2022-12-18T10:20:17;9.90;;;6.70;;
16246;SDS011;8231;50.866;7.944;2022-12-18T10:22:53;10.93;;;6.37;;
16246;SDS011;8231;50.866;7.944;2022-12-18T10:25:26;8.67;;;5.83;;
16246;SDS011;8231;50.866;7.944;2022-12-18T10:27:58;11.63;;;8.43;;
16246;SDS011;8231;50.866;7.944;2022-12-18T10:30:36;6.83;;;5.53;;
16246;SDS011;8231;50.866;7.944;2022-12-18T10:33:08;12.80;;;7.50;;
16246;SDS011;8231;50.866;7.944;2022-12-18T10:35:39;9.40;;;6.60;;
16246;SDS011;8231;50.866;7.944;2022-12-18T10:38:20;11.63;;;6.87;;
16246;SDS011;8231;50.866;7.944;2022-12-18T10:40:50;11.83;;;7.30;;
16246;SDS011;8231;50.866;7.944;2022-12-18T10:43:22;6.63;;;5.17;;
16246;SDS011;8231;50.866;7.944;2022-12-18T10:46:04;11.03;;;8.37;;
16246;SDS011;8231;50.866;7.944;2022-12-18T10:48:48;6.33;;;3.73;;
16246;SDS011;8231;50.866;7.944;2022-12-18T10:51:20;12.07;;;7.40;;
16246;SDS011;8231;50.866;7.944;2022-12-18T10:53:54;11.30;;;7.30;;
16246;SDS011;8231;50.866;7.944;2022-12-18T10:56:24;12.37;;;7.17;;
16246;SDS011;8231;50.866;7.944;2022-12-18T10:58:56;9.70;;;6.37;;
16246;SDS011;8231;50.866;7.944;2022-12-18T11:01:28;11.23;;;7.67;;
16246;SDS011;8231;50.866;7.944;2022-12-18T11:04:13;9.67;;;6.93;;
16246;SDS011;8231;50.866;7.944;2022-12-18T11:06:52;11.37;;;7.07;;
16246;SDS011;8231;50.866;7.944;2022-12-18T11:09:23;14.80;;;8.87;;
16246;SDS011;8231;50.866;7.944;2022-12-18T11:11:53;13.47;;;8.83;;
16246;SDS011;8231;50.866;7.944;2022-12-18T11:14:23;15.13;;;8.87;;
16246;SDS011;8231;50.866;7.944;2022-12-18T11:16:54;12.10;;;8.90;;
16246;SDS011;8231;50.866;7.944;2022-12-18T11:19:44;17.57;;;8.07;;
16246;SDS011;8231;50.866;7.944;2022-12-18T11:22:19;9.83;;;7.03;;
16246;SDS011;8231;50.866;7.944;2022-12-18T11:24:52;15.67;;;9.47;;
16246;SDS011;8231;50.866;7.944;2022-12-18T11:27:46;11.67;;;8.73;;
16246;SDS011;8231;50.866;7.944;2022-12-18T11:30:20;12.93;;;8.67;;
16246;SDS011;8231;50.866;7.944;2022-12-18T11:32:51;11.67;;;8.33;;
16246;SDS011;8231;50.866;7.944;2022-12-18T11:35:25;14.13;;;9.13;;
16246;SDS011;8231;50.866;7.944;2022-12-18T11:38:02;13.33;;;8.27;;
16246;SDS011;8231;50.866;7.944;2022-12-18T11:40:39;10.57;;;7.43;;
16246;SDS011;8231;50.866;7.944;2022-12-18T11:43:13;9.50;;;6.40;;
16246;SDS011;8231;50.866;7.944;2022-12-18T11:45:45;14.20;;;9.50;;
16246;SDS011;8231;50.866;7.944;2022-12-18T11:48:21;10.13;;;7.83;;
16246;SDS011;8231;50.866;7.944;2022-12-18T11:50:52;13.27;;;8.70;;
16246;SDS011;8231;50.866;7.944;2022-12-18T11:53:22;14.53;;;10.97;;
16246;SDS011;8231;50.866;7.944;2022-12-18T11:55:58;14.27;;;9.90;;
16246;SDS011;8231;50.866;7.944;2022-12-18T11:58:39;14.37;;;9.10;;
16246;SDS011;8231;50.866;7.944;2022-12-18T12:01:16;14.77;;;8.70;;
16246;SDS011;8231;50.866;7.944;2022-12-18T12:04:08;14.17;;;8.63;;
16246;SDS011;8231;50.866;7.944;2022-12-18T12:06:45;15.83;;;9.13;;
16246;SDS011;8231;50.866;7.944;2022-12-18T12:09:18;13.90;;;8.13;;
16246;SDS011;8231;50.866;7.944;2022-12-18T12:11:54;15.17;;;9.70;;
16246;SDS011;8231;50.866;7.944;2022-12-18T12:14:34;14.40;;;10.27;;
16246;SDS011;8231;50.866;7.944;2022-12-18T12:17:14;15.67;;;10.07;;
16246;SDS011;8231;50.866;7.944;2022-12-18T12:19:53;17.83;;;9.93;;
16246;SDS011;8231;50.866;7.944;2022-12-18T12:22:30;13.03;;;9.00;;
16246;SDS011;8231;50.866;7.944;2022-12-18T12:25:07;10.97;;;8.23;;
16246;SDS011;8231;50.866;7.944;2022-12-18T12:27:48;15.20;;;10.87;;
16246;SDS011;8231;50.866;7.944;2022-12-18T12:30:24;8.30;;;7.33;;
16246;SDS011;8231;50.866;7.944;2022-12-18T12:33:05;16.23;;;10.27;;
16246;SDS011;8231;50.866;7.944;2022-12-18T12:35:49;18.73;;;11.83;;
16246;SDS011;8231;50.866;7.944;2022-12-18T12:38:24;18.40;;;11.20;;
16246;SDS011;8231;50.866;7.944;2022-12-18T12:40:56;15.57;;;10.20;;
16246;SDS011;8231;50.866;7.944;2022-12-18T12:43:32;15.97;;;9.33;;
16246;SDS011;8231;50.866;7.944;2022-12-18T12:46:03;16.00;;;9.73;;
16246;SDS011;8231;50.866;7.944;2022-12-18T12:48:38;13.90;;;9.23;;
16246;SDS011;8231;50.866;7.944;2022-12-18T12:51:13;14.67;;;10.60;;
16246;SDS011;8231;50.866;7.944;2022-12-18T12:53:45;17.27;;;11.40;;
16246;SDS011;8231;50.866;7.944;2022-12-18T12:56:14;18.67;;;10.60;;
16246;SDS011;8231;50.866;7.944;2022-12-18T12:58:48;24.33;;;12.33;;
16246;SDS011;8231;50.866;7.944;2022-12-18T13:01:28;18.60;;;10.73;;
16246;SDS011;8231;50.866;7.944;2022-12-18T13:04:05;19.70;;;11.97;;
16246;SDS011;8231;50.866;7.944;2022-12-18T13:06:45;16.20;;;10.30;;
16246;SDS011;8231;50.866;7.944;2022-12-18T13:09:17;13.70;;;9.53;;
16246;SDS011;8231;50.866;7.944;2022-12-18T13:11:46;13.17;;;9.50;;
16246;SDS011;8231;50.866;7.944;2022-12-18T13:14:32;12.97;;;8.83;;
16246;SDS011;8231;50.866;7.944;2022-12-18T13:20:09;18.77;;;12.20;;
16246;SDS011;8231;50.866;7.944;2022-12-18T13:22:42;16.10;;;10.87;;
16246;SDS011;8231;50.866;7.944;2022-12-18T13:25:28;18.03;;;11.93;;
16246;SDS011;8231;50.866;7.944;2022-12-18T13:30:49;17.27;;;10.97;;
16246;SDS011;8231;50.866;7.944;2022-12-18T13:36:33;24.10;;;14.13;;
16246;SDS011;8231;50.866;7.944;2022-12-18T13:39:20;22.47;;;13.53;;
16246;SDS011;8231;50.866;7.944;2022-12-18T13:45:40;15.03;;;8.30;;
16246;SDS011;8231;50.866;7.944;2022-12-18T13:48:23;19.33;;;11.73;;
16246;SDS011;8231;50.866;7.944;2022-12-18T13:50:54;21.73;;;14.77;;
16246;SDS011;8231;50.866;7.944;2022-12-18T13:53:26;21.10;;;13.07;;
16246;SDS011;8231;50.866;7.944;2022-12-18T13:55:59;17.30;;;11.17;;
16246;SDS011;8231;50.866;7.944;2022-12-18T13:58:27;26.90;;;12.97;;
16246;SDS011;8231;50.866;7.944;2022-12-18T14:00:55;17.10;;;11.67;;
16246;SDS011;8231;50.866;7.944;2022-12-18T14:03:26;21.33;;;12.77;;
16246;SDS011;8231;50.866;7.944;2022-12-18T14:05:58;20.80;;;13.10;;
16246;SDS011;8231;50.866;7.944;2022-12-18T14:08:32;24.57;;;14.43;;
16246;SDS011;8231;50.866;7.944;2022-12-18T14:11:07;19.63;;;12.77;;
16246;SDS011;8231;50.866;7.944;2022-12-18T14:13:41;24.67;;;14.90;;
16246;SDS011;8231;50.866;7.944;2022-12-18T14:16:11;22.97;;;14.70;;
16246;SDS011;8231;50.866;7.944;2022-12-18T14:18:43;24.17;;;14.60;;
16246;SDS011;8231;50.866;7.944;2022-12-18T14:21:19;29.43;;;18.60;;
16246;SDS011;8231;50.866;7.944;2022-12-18T14:24:02;27.77;;;15.87;;
16246;SDS011;8231;50.866;7.944;2022-12-18T14:26:33;25.47;;;14.63;;
16246;SDS011;8231;50.866;7.944;2022-12-18T14:29:14;18.73;;;9.37;;
16246;SDS011;8231;50.866;7.944;2022-12-18T14:34:42;15.30;;;12.23;;
16246;SDS011;8231;50.866;7.944;2022-12-18T14:37:10;22.30;;;14.50;;
16246;SDS011;8231;50.866;7.944;2022-12-18T14:39:40;33.70;;;19.67;;
16246;SDS011;8231;50.866;7.944;2022-12-18T14:42:20;25.97;;;15.70;;
16246;SDS011;8231;50.866;7.944;2022-12-18T14:44:48;30.07;;;17.03;;
16246;SDS011;8231;50.866;7.944;2022-12-18T14:47:36;28.53;;;16.53;;
16246;SDS011;8231;50.866;7.944;2022-12-18T14:50:11;25.83;;;15.60;;
16246;SDS011;8231;50.866;7.944;2022-12-18T14:52:40;28.43;;;17.10;;
16246;SDS011;8231;50.866;7.944;2022-12-18T14:55:14;24.27;;;14.57;;
16246;SDS011;8231;50.866;7.944;2022-12-18T14:57:44;20.20;;;11.50;;
16246;SDS011;8231;50.866;7.944;2022-12-18T15:00:15;13.00;;;10.60;;
16246;SDS011;8231;50.866;7.944;2022-12-18T15:02:45;22.80;;;14.03;;
16246;SDS011;8231;50.866;7.944;2022-12-18T15:05:16;19.00;;;10.00;;
16246;SDS011;8231;50.866;7.944;2022-12-18T15:07:48;26.90;;;17.70;;
16246;SDS011;8231;50.866;7.944;2022-12-18T15:10:18;17.70;;;10.50;;
16246;SDS011;8231;50.866;7.944;2022-12-18T15:13:07;29.60;;;16.83;;
16246;SDS011;8231;50.866;7.944;2022-12-18T15:15:47;27.33;;;15.03;;
16246;SDS011;8231;50.866;7.944;2022-12-18T15:18:16;26.93;;;17.20;;
16246;SDS011;8231;50.866;7.944;2022-12-18T15:20:48;25.70;;;16.20;;
16246;SDS011;8231;50.866;7.944;2022-12-18T15:23:18;35.47;;;19.70;;